createdAt,value
2023-04-17T00:02:20.123Z,89.33
2023-04-17T00:04:48.647Z,89.56
2023-04-17T00:07:16.670Z,89.21
2023-04-17T00:09:44.282Z,89.91
2023-04-17T00:12:11.920Z,89.75
2023-04-17T00:14:39.606Z,89.78
2023-04-17T00:17:07.724Z,89.73
2023-04-17T00:19:35.467Z,88.93
2023-04-17T00:22:03.140Z,89.59
2023-04-17T00:24:31.171Z,88.78
2023-04-17T00:26:58.815Z,87.34
2023-04-17T00:29:26.433Z,87.14
2023-04-17T00:31:54.106Z,88.13
2023-04-17T00:34:21.791Z,88.45
2023-04-17T00:36:49.851Z,88.86
2023-04-17T00:39:17.660Z,89.55
2023-04-17T00:41:45.473Z,89.56
2023-04-17T00:44:14.042Z,89.43
2023-04-17T00:46:42.000Z,88.42
2023-04-17T00:49:10.998Z,89.04
2023-04-17T00:51:38.800Z,89.79
2023-04-17T00:54:07.401Z,89.91
2023-04-17T00:56:35.506Z,89.13
2023-04-17T00:59:06.097Z,89.39
2023-04-17T01:01:33.872Z,87.80
2023-04-17T01:04:07.520Z,88.03
2023-04-17T01:06:36.544Z,89.58
2023-04-17T01:09:04.281Z,89.12
2023-04-17T01:11:32.033Z,88.73
2023-04-17T01:14:00.291Z,89.65
2023-04-17T01:16:30.692Z,90.18
2023-04-17T01:18:59.649Z,90.31
2023-04-17T01:21:27.655Z,90.18
2023-04-17T01:24:02.580Z,89.98
2023-04-17T01:26:32.721Z,90.55
2023-04-17T01:29:00.849Z,90.28
2023-04-17T01:31:30.116Z,89.84
2023-04-17T01:33:57.910Z,90.66
2023-04-17T01:36:25.612Z,89.78
2023-04-17T01:38:53.232Z,90.14
2023-04-17T01:41:20.915Z,90.17
2023-04-17T01:43:48.973Z,90.28
2023-04-17T01:46:16.657Z,90.18
2023-04-17T01:48:44.623Z,89.21
2023-04-17T01:51:12.312Z,89.02
2023-04-17T01:53:40.093Z,89.28
2023-04-17T01:56:07.932Z,89.73
2023-04-17T01:58:36.015Z,89.77
2023-04-17T02:01:04.204Z,89.85
2023-04-17T02:03:32.172Z,89.50
2023-04-17T02:06:00.124Z,89.52
2023-04-17T02:08:27.840Z,90.00
2023-04-17T02:10:56.033Z,89.78
2023-04-17T02:13:24.130Z,89.87
2023-04-17T02:15:52.256Z,89.76
2023-04-17T02:18:20.766Z,90.25
2023-04-17T02:20:48.915Z,89.75
2023-04-17T02:23:16.627Z,89.67
2023-04-17T02:25:44.249Z,89.41
2023-04-17T02:28:11.934Z,88.39
2023-04-17T02:30:39.723Z,88.64
2023-04-17T02:33:07.553Z,88.05
2023-04-17T02:35:35.459Z,88.52
2023-04-17T02:38:03.280Z,89.12
2023-04-17T02:40:33.140Z,89.54
2023-04-17T02:43:02.484Z,88.40
2023-04-17T02:45:30.783Z,89.00
2023-04-17T02:47:58.633Z,89.85
2023-04-17T02:50:26.603Z,90.25
2023-04-17T02:53:05.176Z,90.17
2023-04-17T02:55:32.985Z,90.28
2023-04-17T02:58:00.932Z,90.00
2023-04-17T03:00:29.532Z,89.98
2023-04-17T03:02:57.500Z,90.04
2023-04-17T03:05:25.880Z,89.96
2023-04-17T03:07:54.681Z,89.76
2023-04-17T03:10:22.585Z,89.54
2023-04-17T03:12:50.379Z,89.57
2023-04-17T03:15:18.067Z,89.52
2023-04-17T03:17:46.108Z,89.43
2023-04-17T03:44:19.454Z,90.02
2023-04-17T03:46:47.195Z,90.14
2023-04-17T03:49:15.452Z,90.46
2023-04-17T03:51:43.856Z,90.02
2023-04-17T03:54:16.168Z,90.09
2023-04-17T03:56:44.582Z,89.79
2023-04-17T03:59:12.633Z,90.08
2023-04-17T04:01:45.375Z,89.94
2023-04-17T04:04:18.644Z,90.27
2023-04-17T04:33:36.968Z,92.93
2023-04-17T04:36:03.704Z,93.47
2023-04-17T04:38:31.881Z,93.40
2023-04-17T04:41:05.260Z,93.15
2023-04-17T04:43:32.894Z,93.29
2023-04-17T04:46:00.051Z,93.58
2023-04-17T04:48:28.282Z,92.37
2023-04-17T04:50:57.470Z,92.42
2023-04-17T04:53:24.295Z,92.72
2023-04-17T04:55:56.740Z,91.94
2023-04-17T04:58:23.345Z,92.63
2023-04-17T05:00:51.590Z,92.92
2023-04-17T05:03:25.743Z,92.27
2023-04-17T05:05:52.704Z,91.54
2023-04-17T05:08:19.623Z,91.70
2023-04-17T05:10:52.756Z,91.43
2023-04-17T05:13:19.222Z,91.86
2023-04-17T05:15:45.520Z,91.55
2023-04-17T05:18:12.116Z,91.49
2023-04-17T05:20:38.627Z,91.51
2023-04-17T05:23:05.493Z,91.97
2023-04-17T05:25:31.818Z,92.21
2023-04-17T05:27:58.288Z,91.78
2023-04-17T05:30:24.617Z,92.21
2023-04-17T05:32:59.054Z,91.67
2023-04-17T05:35:41.159Z,91.63
2023-04-17T05:38:09.043Z,92.29
2023-04-17T05:40:35.753Z,92.09
2023-04-17T05:43:10.440Z,91.95
2023-04-17T05:45:38.416Z,91.96
2023-04-17T05:48:07.897Z,91.40
2023-04-17T05:50:36.708Z,91.12
2023-04-17T05:53:03.872Z,91.60
2023-04-17T05:55:33.745Z,91.75
2023-04-17T05:58:10.530Z,91.55
2023-04-17T06:00:47.919Z,91.52
2023-04-17T06:03:18.198Z,91.56
2023-04-17T06:05:46.298Z,91.77
2023-04-17T06:08:12.620Z,91.29
2023-04-17T06:10:38.998Z,90.87
2023-04-17T06:13:05.280Z,90.63
2023-04-17T06:15:31.558Z,90.68
2023-04-17T06:17:57.918Z,90.79
2023-04-17T06:20:24.214Z,90.94
2023-04-17T06:22:50.547Z,90.39
2023-04-17T06:25:17.592Z,90.42
2023-04-17T06:27:45.135Z,90.40
2023-04-17T06:30:12.429Z,90.30
2023-04-17T06:32:49.973Z,89.92
2023-04-17T06:35:18.477Z,89.86
2023-04-17T06:37:48.484Z,89.73
2023-04-17T06:40:14.788Z,89.48
2023-04-17T06:42:41.049Z,89.35
2023-04-17T06:45:11.646Z,88.99
2023-04-17T06:47:38.113Z,88.98
2023-04-17T06:50:05.129Z,88.59
2023-04-17T06:52:31.405Z,88.22
2023-04-17T06:54:57.879Z,88.43
2023-04-17T06:57:24.234Z,87.86
2023-04-17T06:59:50.790Z,87.79
2023-04-17T07:02:17.316Z,87.37
2023-04-17T07:04:43.941Z,86.71
2023-04-17T07:07:10.430Z,86.75
2023-04-17T07:09:36.687Z,86.32
2023-04-17T07:12:03.169Z,85.59
2023-04-17T07:14:30.020Z,86.01
2023-04-17T07:16:56.282Z,85.97
2023-04-17T07:19:22.675Z,85.32
2023-04-17T07:21:48.877Z,85.28
2023-04-17T07:24:15.160Z,85.04
2023-04-17T07:26:42.672Z,84.96
2023-04-17T07:29:08.928Z,84.23
2023-04-17T07:31:35.375Z,83.37
2023-04-17T07:34:01.713Z,83.18
2023-04-17T07:36:29.191Z,83.61
2023-04-17T07:38:55.404Z,82.90
2023-04-17T07:41:21.683Z,81.71
2023-04-17T07:43:48.533Z,81.30
2023-04-17T07:46:14.813Z,80.43
2023-04-17T07:48:41.153Z,81.15
2023-04-17T07:51:07.527Z,80.16
2023-04-17T07:53:35.550Z,79.73
2023-04-17T07:56:01.916Z,78.73
2023-04-17T07:58:28.384Z,78.54
2023-04-17T08:00:54.756Z,79.35
2023-04-17T08:03:21.796Z,78.97
2023-04-17T08:05:48.648Z,78.84
2023-04-17T08:08:15.468Z,78.11
2023-04-17T08:10:41.687Z,78.28
2023-04-17T08:13:07.922Z,78.90
2023-04-17T08:15:34.421Z,78.17
2023-04-17T08:18:00.817Z,78.07
2023-04-17T08:20:27.403Z,77.71
2023-04-17T08:22:53.674Z,78.23
2023-04-17T08:25:20.416Z,78.12
2023-04-17T08:27:47.000Z,78.39
2023-04-17T08:30:16.225Z,78.44
2023-04-17T08:32:46.646Z,78.88
2023-04-17T08:35:14.297Z,79.16
2023-04-17T08:37:42.029Z,78.98
2023-04-17T08:40:09.156Z,79.29
2023-04-17T08:42:36.965Z,78.91
2023-04-17T08:45:08.896Z,78.83
2023-04-17T08:47:39.182Z,79.14
2023-04-17T08:50:15.234Z,79.74
2023-04-17T08:52:43.162Z,79.06
2023-04-17T08:55:19.107Z,79.09
2023-04-17T08:58:03.189Z,79.15
2023-04-17T09:00:33.825Z,79.13
2023-04-17T09:03:03.324Z,79.41
2023-04-17T09:05:35.954Z,79.05
2023-04-17T09:08:07.271Z,79.36
2023-04-17T09:10:42.617Z,78.73
2023-04-17T09:13:11.508Z,78.97
2023-04-17T09:15:37.825Z,78.66
2023-04-17T09:18:04.337Z,78.22
2023-04-17T09:20:31.256Z,78.34
2023-04-17T09:23:00.272Z,77.05
2023-04-17T09:25:27.600Z,77.19
2023-04-17T09:28:00.784Z,77.13
2023-04-17T09:30:27.080Z,76.82
2023-04-17T09:33:04.595Z,76.63
2023-04-17T09:35:32.761Z,77.02
2023-04-17T09:37:59.387Z,76.11
2023-04-17T09:40:27.997Z,76.63
2023-04-17T09:42:58.456Z,75.69
2023-04-17T09:45:27.513Z,75.12
2023-04-17T09:47:56.526Z,75.61
2023-04-17T09:50:26.342Z,74.51
2023-04-17T09:52:55.225Z,74.64
2023-04-17T09:55:23.407Z,75.28
2023-04-17T09:57:55.375Z,75.25
2023-04-17T10:00:24.886Z,76.00
2023-04-17T10:02:53.471Z,75.49
2023-04-17T10:05:22.084Z,75.34
2023-04-17T10:07:48.738Z,75.39
2023-04-17T10:10:32.638Z,74.87
2023-04-17T10:13:01.730Z,74.75
2023-04-17T10:15:29.841Z,74.41
2023-04-17T10:18:19.128Z,74.67
2023-04-17T10:20:47.978Z,74.69
2023-04-17T10:23:32.496Z,73.54
2023-04-17T10:26:25.692Z,73.92
2023-04-17T10:28:53.387Z,73.51
2023-04-17T10:31:22.507Z,73.82
2023-04-17T10:33:53.509Z,73.76
2023-04-17T10:36:37.864Z,73.75
2023-04-17T10:39:15.627Z,73.38
2023-04-17T10:42:01.973Z,73.15
2023-04-17T10:44:35.241Z,72.61
2023-04-17T10:47:09.406Z,71.29
2023-04-17T10:49:57.597Z,71.59
2023-04-17T10:52:39.307Z,70.86
2023-04-17T10:55:07.161Z,70.81
2023-04-17T10:57:51.925Z,71.43
2023-04-17T11:00:20.984Z,70.80
2023-04-17T11:02:49.576Z,70.64
2023-04-17T11:05:20.556Z,71.08
2023-04-17T11:07:51.031Z,71.42
2023-04-17T11:10:19.126Z,70.97
2023-04-17T11:12:52.535Z,70.68
2023-04-17T11:15:30.000Z,68.68
2023-04-17T11:17:57.964Z,69.30
2023-04-17T11:20:30.159Z,69.34
2023-04-17T11:23:01.018Z,69.14
2023-04-17T11:25:32.878Z,68.95
2023-04-17T11:28:05.049Z,68.96
2023-04-17T11:30:36.474Z,69.28
2023-04-17T11:33:05.435Z,69.09
2023-04-17T11:35:34.116Z,69.27
2023-04-17T11:38:21.684Z,68.32
2023-04-17T11:40:54.082Z,67.89
2023-04-17T11:43:22.291Z,68.67
2023-04-17T11:45:58.842Z,68.40
2023-04-17T11:48:29.449Z,68.51
2023-04-17T11:50:58.505Z,67.83
2023-04-17T11:53:25.009Z,67.23
2023-04-17T11:56:13.090Z,68.55
2023-04-17T11:58:52.654Z,68.25
2023-04-17T12:01:23.840Z,68.43
2023-04-17T12:03:51.239Z,68.09
2023-04-17T12:06:17.790Z,68.17
2023-04-17T12:08:52.845Z,68.48
2023-04-17T12:11:26.648Z,68.95
2023-04-17T12:13:53.837Z,69.44
2023-04-17T12:16:21.736Z,69.74
2023-04-17T12:18:48.168Z,70.24
2023-04-17T12:21:14.736Z,70.68
2023-04-17T12:23:41.773Z,71.34
2023-04-17T12:26:08.886Z,71.96
2023-04-17T12:28:35.813Z,72.30
2023-04-17T12:31:03.833Z,72.63
2023-04-17T12:33:31.118Z,72.65
2023-04-17T12:35:58.140Z,72.52
2023-04-17T12:38:24.570Z,72.39
2023-04-17T12:40:50.822Z,72.71
2023-04-17T12:43:17.127Z,72.83
2023-04-17T12:45:46.527Z,72.51
2023-04-17T12:48:14.109Z,72.66
2023-04-17T12:50:44.951Z,72.89
2023-04-17T12:53:14.181Z,72.83
2023-04-17T12:55:42.797Z,72.88
2023-04-17T12:58:10.900Z,72.87
2023-04-17T13:00:39.075Z,71.99
2023-04-17T13:03:06.233Z,71.71
2023-04-17T13:05:34.190Z,71.56
2023-04-17T13:08:00.960Z,71.30
2023-04-17T13:10:27.349Z,71.00
2023-04-17T13:12:54.095Z,70.75
2023-04-17T13:15:21.108Z,70.38
2023-04-17T13:17:47.558Z,70.21
2023-04-17T13:20:13.906Z,69.86
2023-04-17T13:22:40.529Z,69.49
2023-04-17T13:25:07.492Z,68.77
2023-04-17T13:27:34.039Z,68.58
2023-04-17T13:30:00.306Z,67.98
2023-04-17T13:32:26.669Z,67.57
2023-04-17T13:34:53.204Z,67.03
2023-04-17T13:37:19.775Z,65.78
2023-04-17T13:39:46.576Z,65.87
2023-04-17T13:42:15.648Z,65.22
2023-04-17T13:44:43.490Z,64.92
2023-04-17T13:47:12.465Z,65.23
2023-04-17T13:49:38.738Z,65.59
2023-04-17T13:52:06.056Z,65.32
2023-04-17T13:54:32.424Z,64.69
2023-04-17T13:57:00.979Z,63.32
2023-04-17T13:59:27.445Z,63.84
2023-04-17T14:01:53.875Z,63.86
2023-04-17T14:04:21.033Z,63.47
2023-04-17T14:06:50.250Z,62.83
2023-04-17T14:09:17.122Z,60.93
2023-04-17T14:11:43.441Z,61.98
2023-04-17T14:14:12.064Z,61.91
2023-04-17T14:16:40.236Z,62.32
2023-04-17T14:21:39.482Z,60.61
2023-04-17T14:24:06.055Z,61.72
2023-04-17T14:26:32.471Z,61.67
2023-04-17T14:28:58.965Z,61.38
2023-04-17T14:31:25.289Z,61.59
2023-04-17T14:33:51.551Z,61.70
2023-04-17T14:36:17.980Z,61.84
2023-04-17T14:38:48.468Z,62.27
2023-04-17T14:41:16.041Z,61.73
2023-04-17T14:43:42.444Z,62.27
2023-04-17T14:46:08.967Z,61.88
2023-04-17T14:48:44.300Z,61.15
2023-04-17T14:51:22.356Z,60.68
2023-04-17T14:53:49.627Z,60.85
2023-04-17T14:56:16.462Z,60.83
2023-04-17T14:58:42.930Z,60.99
2023-04-17T15:01:09.883Z,60.49
2023-04-17T15:03:36.580Z,61.34
2023-04-17T15:06:03.494Z,60.93
2023-04-17T15:08:30.558Z,61.06
2023-04-17T15:10:58.017Z,61.59
2023-04-17T15:13:24.348Z,61.51
2023-04-17T15:15:52.149Z,61.38
2023-04-17T15:18:18.383Z,62.11
2023-04-17T15:20:45.503Z,62.48
2023-04-17T15:23:11.746Z,62.49
2023-04-17T15:25:38.278Z,62.95
2023-04-17T15:28:04.544Z,63.12
2023-04-17T15:30:30.766Z,62.95
2023-04-17T15:32:57.282Z,62.67
2023-04-17T15:35:23.632Z,63.24
2023-04-17T15:37:49.968Z,62.99
2023-04-17T15:40:16.242Z,63.18
2023-04-17T15:42:43.328Z,63.59
2023-04-17T15:45:10.232Z,63.99
2023-04-17T15:47:36.561Z,63.53
2023-04-17T15:50:03.214Z,63.63
2023-04-17T15:52:29.438Z,63.84
2023-04-17T15:54:55.746Z,64.18
2023-04-17T15:57:22.710Z,64.31
2023-04-17T15:59:49.097Z,64.36
2023-04-17T16:02:16.208Z,63.79
2023-04-17T16:04:43.064Z,64.50
2023-04-17T16:07:11.237Z,64.63
2023-04-17T16:09:39.148Z,64.70
2023-04-17T16:12:08.011Z,65.19
2023-04-17T16:14:35.535Z,65.17
2023-04-17T16:17:02.902Z,65.42
2023-04-17T16:19:30.213Z,65.14
2023-04-17T16:21:57.097Z,65.29
2023-04-17T16:24:24.260Z,65.80
2023-04-17T16:26:58.189Z,65.53
2023-04-17T16:29:25.460Z,66.03
2023-04-17T16:31:53.476Z,65.90
2023-04-17T16:34:20.220Z,66.10
2023-04-17T16:36:48.965Z,66.35
2023-04-17T16:39:15.641Z,66.44
2023-04-17T16:41:42.630Z,66.84
2023-04-17T16:44:09.252Z,67.06
2023-04-17T16:46:55.174Z,67.41
2023-04-17T16:49:22.082Z,67.12
2023-04-17T16:51:48.392Z,67.08
2023-04-17T16:54:15.000Z,67.19
2023-04-17T16:56:42.024Z,67.50
2023-04-17T16:59:08.343Z,67.88
2023-04-17T17:01:35.151Z,67.93
2023-04-17T17:04:01.529Z,67.87
2023-04-17T17:06:28.488Z,68.54
2023-04-17T17:08:55.481Z,68.15
2023-04-17T17:11:22.188Z,68.38
2023-04-17T17:13:49.396Z,68.77
2023-04-17T17:16:17.590Z,68.34
2023-04-17T17:18:45.051Z,68.39
2023-04-17T17:21:12.754Z,68.47
2023-04-17T17:23:42.124Z,68.42
2023-04-17T17:26:08.692Z,68.56
2023-04-17T17:28:35.202Z,68.58
2023-04-17T17:31:03.462Z,68.74
2023-04-17T17:33:32.016Z,69.01
2023-04-17T17:35:59.253Z,69.20
2023-04-17T17:38:31.667Z,69.15
2023-04-17T17:40:58.054Z,69.44
2023-04-17T17:43:24.506Z,69.84
2023-04-17T17:45:51.687Z,69.98
2023-04-17T17:48:19.618Z,70.12
2023-04-17T17:50:46.812Z,70.15
2023-04-17T17:53:13.483Z,71.24
2023-04-17T17:55:39.974Z,71.24
2023-04-17T17:58:08.100Z,71.44
2023-04-17T18:00:35.037Z,71.60
2023-04-17T18:03:01.483Z,71.69
2023-04-17T18:05:27.933Z,71.78
2023-04-17T18:07:54.698Z,72.02
2023-04-17T18:10:21.546Z,72.30
2023-04-17T18:12:48.513Z,72.70
2023-04-17T18:15:14.806Z,72.82
2023-04-17T18:17:41.156Z,73.18
2023-04-17T18:20:08.364Z,73.12
2023-04-17T18:22:37.309Z,73.46
2023-04-17T18:25:05.729Z,73.35
2023-04-17T18:27:35.045Z,73.60
2023-04-17T18:30:03.336Z,73.85
2023-04-17T18:32:31.037Z,73.97
2023-04-17T18:34:57.784Z,74.26
2023-04-17T18:37:24.579Z,74.20
2023-04-17T18:39:51.644Z,74.09
2023-04-17T18:42:18.676Z,74.37
2023-04-17T18:44:45.286Z,74.42
2023-04-17T18:47:12.011Z,74.41
2023-04-17T18:49:38.599Z,74.54
2023-04-17T18:52:05.066Z,75.03
2023-04-17T18:54:31.969Z,75.09
2023-04-17T18:56:58.739Z,75.05
2023-04-17T18:59:27.269Z,75.24
2023-04-17T19:01:53.962Z,75.01
2023-04-17T19:04:21.064Z,75.28
2023-04-17T19:06:47.554Z,75.64
2023-04-17T19:09:14.238Z,75.51
2023-04-17T19:11:40.589Z,76.09
2023-04-17T19:14:07.160Z,75.92
2023-04-17T19:16:33.774Z,76.49
2023-04-17T19:19:00.382Z,77.01
2023-04-17T19:21:27.665Z,77.06
2023-04-17T19:23:54.834Z,78.04
2023-04-17T19:26:22.258Z,77.95
2023-04-17T19:28:48.822Z,78.20
2023-04-17T19:31:15.204Z,79.06
2023-04-17T19:33:41.917Z,79.58
2023-04-17T19:36:08.549Z,78.87
2023-04-17T19:38:34.940Z,79.15
2023-04-17T19:41:18.897Z,79.39
2023-04-17T19:43:46.377Z,79.48
2023-04-17T19:46:13.533Z,79.22
2023-04-17T19:48:42.799Z,79.25
2023-04-17T19:51:10.155Z,79.23
2023-04-17T19:53:40.421Z,79.37
2023-04-17T19:56:08.820Z,80.28
2023-04-17T19:58:36.539Z,80.16
2023-04-17T20:01:03.331Z,79.83
2023-04-17T20:03:31.422Z,79.95
2023-04-17T20:05:58.549Z,79.86
2023-04-17T20:08:25.313Z,80.07
2023-04-17T20:10:52.679Z,81.55
2023-04-17T20:13:18.975Z,80.44
2023-04-17T20:15:45.333Z,80.70
2023-04-17T20:18:11.914Z,80.97
2023-04-17T20:20:38.544Z,80.51
2023-04-17T20:23:05.491Z,81.00
2023-04-17T20:25:32.020Z,80.64
2023-04-17T20:27:58.405Z,80.83
2023-04-17T20:30:24.831Z,80.79
2023-04-17T20:32:51.234Z,81.09
2023-04-17T20:35:20.030Z,81.06
2023-04-17T20:37:46.391Z,81.08
2023-04-17T20:40:13.558Z,81.30
2023-04-17T20:42:41.408Z,81.39
2023-04-17T20:45:09.343Z,81.13
2023-04-17T20:47:37.718Z,81.24
2023-04-17T20:50:07.825Z,81.77
2023-04-17T20:52:34.949Z,81.57
2023-04-17T20:55:01.217Z,81.63
2023-04-17T20:57:28.943Z,81.65
2023-04-17T20:59:55.514Z,81.59
2023-04-17T21:02:22.037Z,81.67
2023-04-17T21:04:48.881Z,82.09
2023-04-17T21:07:15.620Z,82.11
2023-04-17T21:09:42.162Z,81.93
2023-04-17T21:12:08.554Z,82.06
2023-04-17T21:14:35.897Z,82.03
2023-04-17T21:17:02.210Z,82.29
2023-04-17T21:19:30.078Z,81.94
2023-04-17T21:21:57.735Z,82.22
2023-04-17T21:24:24.580Z,82.07
2023-04-17T21:26:50.948Z,82.80
2023-04-17T21:29:17.167Z,82.65
2023-04-17T21:31:43.456Z,82.84
2023-04-17T21:34:09.975Z,83.03
2023-04-17T21:36:36.425Z,83.09
2023-04-17T21:39:02.754Z,83.80
2023-04-17T21:41:31.190Z,83.33
2023-04-17T21:44:02.004Z,83.58
2023-04-17T21:46:28.646Z,83.79
2023-04-17T21:48:56.464Z,85.19
2023-04-17T21:51:23.008Z,84.51
2023-04-17T21:53:49.683Z,85.05
2023-04-17T21:56:15.946Z,85.81
2023-04-17T21:58:42.236Z,85.65
2023-04-17T22:01:08.573Z,84.83
2023-04-17T22:03:35.211Z,85.80
2023-04-17T22:06:01.612Z,85.40
2023-04-17T22:08:27.894Z,84.74
2023-04-17T22:10:54.116Z,85.05
2023-04-17T22:13:20.661Z,85.18
2023-04-17T22:15:47.795Z,85.87
2023-04-17T22:18:14.535Z,85.94
2023-04-17T22:20:40.941Z,85.82
2023-04-17T22:23:07.373Z,85.75
2023-04-17T22:25:33.775Z,86.33
2023-04-17T22:28:00.358Z,87.48
2023-04-17T22:30:26.611Z,87.84
2023-04-17T22:32:52.879Z,88.01
2023-04-17T22:35:19.233Z,87.26
2023-04-17T22:37:45.551Z,87.86
2023-04-17T22:40:12.845Z,87.36
2023-04-17T22:42:39.511Z,86.97
2023-04-17T22:45:06.617Z,87.91
2023-04-17T22:47:32.919Z,87.76
2023-04-17T22:49:59.226Z,87.37
2023-04-17T22:52:25.486Z,87.74
2023-04-17T22:54:52.774Z,87.85
2023-04-17T22:57:19.323Z,88.19
2023-04-17T22:59:45.647Z,88.12
2023-04-17T23:02:12.024Z,88.68
2023-04-17T23:04:38.659Z,88.47
2023-04-17T23:07:05.043Z,88.94
2023-04-17T23:09:31.338Z,88.68
2023-04-17T23:11:57.677Z,88.52
2023-04-17T23:14:25.629Z,88.34
2023-04-17T23:16:52.204Z,88.57
2023-04-17T23:19:20.415Z,88.95
2023-04-17T23:21:46.702Z,88.23
2023-04-17T23:24:13.066Z,88.64
2023-04-17T23:26:39.630Z,88.93
2023-04-17T23:29:05.925Z,88.95
2023-04-17T23:31:32.272Z,89.54
2023-04-17T23:33:58.625Z,89.60
2023-04-17T23:36:24.980Z,90.23
2023-04-17T23:38:51.423Z,90.44
2023-04-17T23:41:17.669Z,89.75
2023-04-17T23:43:44.266Z,88.91
2023-04-17T23:46:10.648Z,89.06
2023-04-17T23:48:36.993Z,89.37
2023-04-17T23:51:03.644Z,89.77
2023-04-17T23:53:30.003Z,89.52
2023-04-17T23:55:56.432Z,89.75
2023-04-17T23:58:22.653Z,89.60
